Terminal Aerodrome Forecast
Issued by NWS

Current Version | Previous Version | Text Only | Print | Product List | Glossary Off
Versions: 1 2 3 4 5 6 7 8 9 10 11 12 13 14 15 16 17 18

000
FTUS41 KILN 272058 AAA
TAFLCK
TAF AMD
KLCK 272058Z 2721/2818 07006KT P6SM SCT045 BKN060
     FM280000 06004KT P6SM SCT050
     FM280300 VRB02KT P6SM SKC
     FM280900 VRB02KT 4SM BR SKC
     FM281300 13005KT P6SM SCT250=

USA.gov is the U.S. government's official web portal to all federal, state and local government web resources and services.